sensor_id;sensor_type;location;lat;lon;timestamp;pressure;altitude;pressure_sealevel;temperature;humidity
3590;BME280;1809;48.470;9.226;2023-05-11T00:00:27;133672.78;;;11.60;100.00
3590;BME280;1809;48.470;9.226;2023-05-11T00:02:53;132982.06;;;11.61;100.00
3590;BME280;1809;48.470;9.226;2023-05-11T00:05:18;133004.09;;;11.71;100.00
3590;BME280;1809;48.470;9.226;2023-05-11T00:07:43;130936.69;;;11.76;100.00
3590;BME280;1809;48.470;9.226;2023-05-11T00:10:09;128855.19;;;11.74;100.00
3590;BME280;1809;48.470;9.226;2023-05-11T00:12:35;127144.06;;;11.83;100.00
3590;BME280;1809;48.470;9.226;2023-05-11T00:15:00;125422.94;;;11.88;100.00
3590;BME280;1809;48.470;9.226;2023-05-11T00:17:26;123696.28;;;11.89;100.00
3590;BME280;1809;48.470;9.226;2023-05-11T00:19:51;122661.44;;;11.90;100.00
3590;BME280;1809;48.470;9.226;2023-05-11T00:22:16;122669.53;;;11.94;100.00
3590;BME280;1809;48.470;9.226;2023-05-11T00:24:42;120266.13;;;12.01;100.00
3590;BME280;1809;48.470;9.226;2023-05-11T00:27:07;119897.06;;;11.89;100.00
3590;BME280;1809;48.470;9.226;2023-05-11T00:29:32;121958.31;;;11.83;100.00
3590;BME280;1809;48.470;9.226;2023-05-11T00:31:58;123001.97;;;11.87;100.00
3590;BME280;1809;48.470;9.226;2023-05-11T00:34:23;123693.19;;;11.87;100.00
3590;BME280;1809;48.470;9.226;2023-05-11T00:36:48;124727.25;;;11.85;100.00
3590;BME280;1809;48.470;9.226;2023-05-11T00:39:14;125752.19;;;11.79;100.00
3590;BME280;1809;48.470;9.226;2023-05-11T00:41:39;125760.47;;;11.83;100.00
3590;BME280;1809;48.470;9.226;2023-05-11T00:44:04;126458.44;;;11.86;100.00
3590;BME280;1809;48.470;9.226;2023-05-11T00:46:30;126456.38;;;11.85;100.00
3590;BME280;1809;48.470;9.226;2023-05-11T00:48:56;127150.34;;;11.86;100.00
3590;BME280;1809;48.470;9.226;2023-05-11T00:51:21;126798.09;;;11.83;100.00
3590;BME280;1809;48.470;9.226;2023-05-11T00:53:48;126793.94;;;11.81;100.00
3590;BME280;1809;48.470;9.226;2023-05-11T00:56:13;127483.75;;;11.80;100.00
3590;BME280;1809;48.470;9.226;2023-05-11T00:58:39;127137.78;;;11.80;100.00
3590;BME280;1809;48.470;9.226;2023-05-11T01:01:05;128165.22;;;11.75;100.00
3590;BME280;1809;48.470;9.226;2023-05-11T01:03:31;129210.91;;;11.79;100.00
3590;BME280;1809;48.470;9.226;2023-05-11T01:06:07;128186.38;;;11.85;100.00
3590;BME280;1809;48.470;9.226;2023-05-11T01:08:45;127154.56;;;11.89;100.00
3590;BME280;1809;48.470;9.226;2023-05-11T01:11:18;125756.31;;;11.81;100.00
3590;BME280;1809;48.470;9.226;2023-05-11T01:13:50;125761.50;;;11.84;100.00
3590;BME280;1809;48.470;9.226;2023-05-11T01:16:22;125410.50;;;11.81;100.00
3590;BME280;1809;48.470;9.226;2023-05-11T01:19:10;126456.38;;;11.85;100.00
3590;BME280;1809;48.470;9.226;2023-05-11T01:21:38;126112.53;;;11.86;100.00
3590;BME280;1809;48.470;9.226;2023-05-11T01:26:58;127485.84;;;11.81;100.00
3590;BME280;1809;48.470;9.226;2023-05-11T01:32:28;128532.47;;;11.85;100.00
3590;BME280;1809;48.470;9.226;2023-05-11T01:35:03;129216.25;;;11.81;100.00
3590;BME280;1809;48.470;9.226;2023-05-11T01:37:30;129224.78;;;11.85;100.00
3590;BME280;1809;48.470;9.226;2023-05-11T01:40:00;129910.78;;;11.82;100.00
3590;BME280;1809;48.470;9.226;2023-05-11T01:42:33;130263.50;;;11.85;100.00
3590;BME280;1809;48.470;9.226;2023-05-11T01:45:00;130269.94;;;11.89;100.00
3590;BME280;1809;48.470;9.226;2023-05-11T01:47:28;128555.78;;;11.97;100.00
3590;BME280;1809;48.470;9.226;2023-05-11T01:49:56;127508.97;;;11.93;100.00
3590;BME280;1809;48.470;9.226;2023-05-11T01:52:24;127165.03;;;11.94;100.00
3590;BME280;1809;48.470;9.226;2023-05-11T01:54:53;126484.53;;;11.99;100.00
3590;BME280;1809;48.470;9.226;2023-05-11T01:57:20;125758.41;;;11.82;100.00
3590;BME280;1809;48.470;9.226;2023-05-11T01:59:47;127840.31;;;11.85;100.00
3590;BME280;1809;48.470;9.226;2023-05-11T02:02:15;127842.41;;;11.86;100.00
3590;BME280;1809;48.470;9.226;2023-05-11T02:04:42;128883.94;;;11.88;100.00
3590;BME280;1809;48.470;9.226;2023-05-11T02:07:10;128878.63;;;11.85;100.00
3590;BME280;1809;48.470;9.226;2023-05-11T02:09:38;129247.16;;;11.96;100.00
3590;BME280;1809;48.470;9.226;2023-05-11T02:12:05;128184.25;;;11.84;100.00
3590;BME280;1809;48.470;9.226;2023-05-11T02:14:32;130250.59;;;11.79;100.00
3590;BME280;1809;48.470;9.226;2023-05-11T02:17:00;131623.88;;;11.74;100.00
3590;BME280;1809;48.470;9.226;2023-05-11T02:19:28;132657.63;;;11.71;100.00
3590;BME280;1809;48.470;9.226;2023-05-11T02:21:54;133691.56;;;11.69;100.00
3590;BME280;1809;48.470;9.226;2023-05-11T02:24:20;133368.22;;;11.79;100.00
3590;BME280;1809;48.470;9.226;2023-05-11T02:26:47;131989.91;;;11.83;100.00
3590;BME280;1809;48.470;9.226;2023-05-11T02:29:13;130249.50;;;11.79;100.00
3590;BME280;1809;48.470;9.226;2023-05-11T02:31:43;131661.94;;;11.92;100.00
3590;BME280;1809;48.470;9.226;2023-05-11T02:34:17;128895.63;;;11.94;100.00
3590;BME280;1809;48.470;9.226;2023-05-11T02:36:47;127177.63;;;12.00;100.00
3590;BME280;1809;48.470;9.226;2023-05-11T02:39:16;125770.84;;;11.89;100.00
3590;BME280;1809;48.470;9.226;2023-05-11T02:41:45;127510.03;;;11.93;100.00
3590;BME280;1809;48.470;9.226;2023-05-11T02:44:13;128187.44;;;11.86;100.00
3590;BME280;1809;48.470;9.226;2023-05-11T02:46:40;130249.50;;;11.79;100.00
3590;BME280;1809;48.470;9.226;2023-05-11T02:49:08;131311.13;;;11.90;100.00
3590;BME280;1809;48.470;9.226;2023-05-11T02:51:38;131990.97;;;11.83;100.00
3590;BME280;1809;48.470;9.226;2023-05-11T02:54:06;131302.50;;;11.85;100.00
3590;BME280;1809;48.470;9.226;2023-05-11T02:56:35;131293.81;;;11.81;100.00
3590;BME280;1809;48.470;9.226;2023-05-11T02:59:01;133377.00;;;11.83;100.00
3590;BME280;1809;48.470;9.226;2023-05-11T03:01:27;133007.41;;;11.73;100.00
3590;BME280;1809;48.470;9.226;2023-05-11T03:03:52;135066.78;;;11.64;100.00
3590;BME280;1809;48.470;9.226;2023-05-11T03:06:18;137140.41;;;11.61;100.00
3590;BME280;1809;48.470;9.226;2023-05-11T03:08:43;138182.13;;;11.61;100.00
3590;BME280;1809;48.470;9.226;2023-05-11T03:11:09;138535.97;;;11.64;100.00
3590;BME280;1809;48.470;9.226;2023-05-11T03:13:37;138874.94;;;11.61;100.00
3590;BME280;1809;48.470;9.226;2023-05-11T03:16:03;140252.69;;;11.56;100.00
3590;BME280;1809;48.470;9.226;2023-05-11T03:18:30;141636.69;;;11.54;100.00
3590;BME280;1809;48.470;9.226;2023-05-11T03:20:56;142321.78;;;11.50;100.00
3590;BME280;1809;48.470;9.226;2023-05-11T03:23:23;143370.84;;;11.53;100.00
3590;BME280;1809;48.470;9.226;2023-05-11T03:25:49;144047.81;;;11.46;100.00
3590;BME280;1809;48.470;9.226;2023-05-11T03:28:16;144739.09;;;11.44;100.00
3590;BME280;1809;48.470;9.226;2023-05-11T03:30:44;145087.78;;;11.45;100.00
3590;BME280;1809;48.470;9.226;2023-05-11T03:33:10;145075.75;;;11.40;100.00
3590;BME280;1809;48.470;9.226;2023-05-11T03:35:36;145092.56;;;11.47;100.00
3590;BME280;1809;48.470;9.226;2023-05-11T03:38:03;145078.16;;;11.41;100.00
3590;BME280;1809;48.470;9.226;2023-05-11T03:40:29;145425.66;;;11.41;100.00
3590;BME280;1809;48.470;9.226;2023-05-11T03:42:57;145411.22;;;11.34;100.00
3590;BME280;1809;48.470;9.226;2023-05-11T03:45:26;146797.78;;;11.33;100.00
3590;BME280;1809;48.470;9.226;2023-05-11T03:47:53;148166.34;;;11.24;100.00
3590;BME280;1809;48.470;9.226;2023-05-11T03:50:20;149202.13;;;11.21;100.00
3590;BME280;1809;48.470;9.226;2023-05-11T03:52:46;149899.00;;;11.21;100.00
3590;BME280;1809;48.470;9.226;2023-05-11T03:55:13;150589.75;;;11.19;100.00
3590;BME280;1809;48.470;9.226;2023-05-11T03:57:39;151629.81;;;11.18;100.00
3590;BME280;1809;48.470;9.226;2023-05-11T04:00:05;151622.28;;;11.15;100.00
3590;BME280;1809;48.470;9.226;2023-05-11T04:02:33;151632.34;;;11.19;100.00
3590;BME280;1809;48.470;9.226;2023-05-11T04:04:59;150916.44;;;11.11;100.00
3590;BME280;1809;48.470;9.226;2023-05-11T04:07:24;151970.28;;;11.15;100.00
3590;BME280;1809;48.470;9.226;2023-05-11T04:09:50;152300.66;;;11.08;100.00
3590;BME280;1809;48.470;9.226;2023-05-11T04:12:15;152303.13;;;11.09;100.00
3590;BME280;1809;48.470;9.226;2023-05-11T04:14:40;152651.16;;;11.09;100.00
3590;BME280;1809;48.470;9.226;2023-05-11T04:17:06;152665.13;;;11.14;100.00
3590;BME280;1809;48.470;9.226;2023-05-11T04:19:31;152656.25;;;11.11;100.00
3590;BME280;1809;48.470;9.226;2023-05-11T04:21:56;152314.53;;;11.13;100.00
3590;BME280;1809;48.470;9.226;2023-05-11T04:24:21;152318.28;;;11.15;100.00
3590;BME280;1809;48.470;9.226;2023-05-11T04:26:47;151985.38;;;11.21;100.00
3590;BME280;1809;48.470;9.226;2023-05-11T04:29:12;151627.34;;;11.17;100.00
3590;BME280;1809;48.470;9.226;2023-05-11T04:31:37;151974.06;;;11.16;100.00
3590;BME280;1809;48.470;9.226;2023-05-11T04:34:05;151995.47;;;11.25;100.00
3590;BME280;1809;48.470;9.226;2023-05-11T04:36:31;151634.88;;;11.20;100.00
3590;BME280;1809;48.470;9.226;2023-05-11T04:38:57;151632.34;;;11.19;100.00
3590;BME280;1809;48.470;9.226;2023-05-11T04:41:22;152333.44;;;11.21;100.00
3590;BME280;1809;48.470;9.226;2023-05-11T04:43:48;152681.53;;;11.21;100.00
3590;BME280;1809;48.470;9.226;2023-05-11T04:46:13;153027.16;;;11.20;100.00
3590;BME280;1809;48.470;9.226;2023-05-11T04:48:39;153386.72;;;11.24;100.00
3590;BME280;1809;48.470;9.226;2023-05-11T04:51:05;153408.38;;;11.33;100.00
3590;BME280;1809;48.470;9.226;2023-05-11T04:53:30;152353.69;;;11.29;100.00
3590;BME280;1809;48.470;9.226;2023-05-11T04:55:55;152035.81;;;11.41;100.00
3590;BME280;1809;48.470;9.226;2023-05-11T04:58:21;151327.03;;;11.36;100.00
3590;BME280;1809;48.470;9.226;2023-05-11T05:00:46;151333.28;;;11.39;100.00
3590;BME280;1809;48.470;9.226;2023-05-11T05:03:12;152029.50;;;11.39;100.00
3590;BME280;1809;48.470;9.226;2023-05-11T05:05:37;152389.03;;;11.43;100.00
3590;BME280;1809;48.470;9.226;2023-05-11T05:08:02;153098.22;;;11.48;100.00
3590;BME280;1809;48.470;9.226;2023-05-11T05:10:28;153807.63;;;11.53;100.00
3590;BME280;1809;48.470;9.226;2023-05-11T05:12:53;154509.59;;;11.55;100.00
3590;BME280;1809;48.470;9.226;2023-05-11T05:15:18;154156.03;;;11.53;100.00
3590;BME280;1809;48.470;9.226;2023-05-11T05:17:44;152752.44;;;11.49;100.00
3590;BME280;1809;48.470;9.226;2023-05-11T05:20:09;153133.72;;;11.62;100.00
3590;BME280;1809;48.470;9.226;2023-05-11T05:22:35;153822.91;;;11.59;100.00
3590;BME280;1809;48.470;9.226;2023-05-11T05:25:00;155596.53;;;11.71;100.00
3590;BME280;1809;48.470;9.226;2023-05-11T05:27:25;155951.69;;;11.74;100.00
3590;BME280;1809;48.470;9.226;2023-05-11T05:29:51;155965.94;;;11.79;100.00
3590;BME280;1809;48.470;9.226;2023-05-11T05:32:16;154225.09;;;11.80;100.00
3590;BME280;1809;48.470;9.226;2023-05-11T05:34:42;153909.69;;;11.94;100.00
3590;BME280;1809;48.470;9.226;2023-05-11T05:37:07;152185.84;;;12.01;100.00
3590;BME280;1809;48.470;9.226;2023-05-11T05:39:33;148709.81;;;12.04;100.00
3590;BME280;1809;48.470;9.226;2023-05-11T05:41:58;146624.88;;;12.06;100.00
3590;BME280;1809;48.470;9.226;2023-05-11T05:44:23;144903.31;;;12.13;100.00
3590;BME280;1809;48.470;9.226;2023-05-11T05:46:49;144196.88;;;12.09;100.00
3590;BME280;1809;48.470;9.226;2023-05-11T05:49:14;145612.38;;;12.19;100.00
3590;BME280;1809;48.470;9.226;2023-05-11T05:51:40;144932.09;;;12.25;100.00
3590;BME280;1809;48.470;9.226;2023-05-11T05:54:05;141128.94;;;12.35;100.00
3590;BME280;1809;48.470;9.226;2023-05-11T05:56:31;139010.50;;;12.20;100.00
3590;BME280;1809;48.470;9.226;2023-05-11T05:58:59;141093.94;;;12.20;100.00
3590;BME280;1809;48.470;9.226;2023-05-11T06:01:24;142180.19;;;12.38;100.00
3590;BME280;1809;48.470;9.226;2023-05-11T06:03:49;140085.06;;;12.34;100.00
3590;BME280;1809;48.470;9.226;2023-05-11T06:06:16;139425.78;;;12.50;100.00
3590;BME280;1809;48.470;9.226;2023-05-11T06:08:41;134956.22;;;12.71;100.00
3590;BME280;1809;48.470;9.226;2023-05-11T06:11:07;129423.19;;;12.79;100.00
3590;BME280;1809;48.470;9.226;2023-05-11T06:13:32;124913.41;;;12.77;100.00
3590;BME280;1809;48.470;9.226;2023-05-11T06:15:58;122495.41;;;12.79;100.00
3590;BME280;1809;48.470;9.226;2023-05-11T06:18:23;122835.41;;;12.76;100.00
3590;BME280;1809;48.470;9.226;2023-05-11T06:20:48;124213.75;;;12.73;100.00
3590;BME280;1809;48.470;9.226;2023-05-11T06:23:14;126971.75;;;12.67;100.00
3590;BME280;1809;48.470;9.226;2023-05-11T06:25:39;131142.09;;;12.72;100.00
3590;BME280;1809;48.470;9.226;2023-05-11T06:28:04;131853.25;;;12.80;100.00
3590;BME280;1809;48.470;9.226;2023-05-11T06:30:30;131872.84;;;12.89;100.00
3590;BME280;1809;48.470;9.226;2023-05-11T06:32:55;130494.72;;;12.94;100.00
3590;BME280;1809;48.470;9.226;2023-05-11T06:35:21;130136.00;;;12.88;100.00
3590;BME280;1809;48.470;9.226;2023-05-11T06:37:47;127013.63;;;12.87;100.00
3590;BME280;1809;48.470;9.226;2023-05-11T06:40:12;126671.28;;;12.89;100.00
3590;BME280;1809;48.470;9.226;2023-05-11T06:42:40;128031.22;;;12.77;100.00
3590;BME280;1809;48.470;9.226;2023-05-11T06:45:09;130481.78;;;12.88;100.00
3590;BME280;1809;48.470;9.226;2023-05-11T06:47:34;129081.78;;;12.82;100.00
3590;BME280;1809;48.470;9.226;2023-05-11T06:50:00;128363.03;;;12.70;100.00
3590;BME280;1809;48.470;9.226;2023-05-11T06:52:25;130801.72;;;12.75;100.00
3590;BME280;1809;48.470;9.226;2023-05-11T06:54:51;132884.50;;;12.76;100.00
3590;BME280;1809;48.470;9.226;2023-05-11T06:57:16;133234.84;;;12.77;100.00
3590;BME280;1809;48.470;9.226;2023-05-11T06:59:41;135324.69;;;12.80;100.00
3590;BME280;1809;48.470;9.226;2023-05-11T07:02:08;138442.75;;;12.76;100.00
3590;BME280;1809;48.470;9.226;2023-05-11T07:04:33;140176.50;;;12.74;100.00
3590;BME280;1809;48.470;9.226;2023-05-11T07:06:58;140147.56;;;12.62;100.00
3590;BME280;1809;48.470;9.226;2023-05-11T07:09:24;141556.09;;;12.69;100.00
3590;BME280;1809;48.470;9.226;2023-05-11T07:11:49;142251.91;;;12.69;100.00
3590;BME280;1809;48.470;9.226;2023-05-11T07:14:16;141187.25;;;12.60;100.00
3590;BME280;1809;48.470;9.226;2023-05-11T07:16:41;140848.78;;;12.64;100.00
3590;BME280;1809;48.470;9.226;2023-05-11T07:19:07;137013.03;;;12.59;100.00
3590;BME280;1809;48.470;9.226;2023-05-11T07:21:34;139079.41;;;12.51;100.00
3590;BME280;1809;48.470;9.226;2023-05-11T07:24:00;141912.19;;;12.73;100.00
3590;BME280;1809;48.470;9.226;2023-05-11T07:26:25;137722.59;;;12.65;100.00
3590;BME280;1809;48.470;9.226;2023-05-11T07:28:51;139813.75;;;12.68;100.00
3590;BME280;1809;48.470;9.226;2023-05-11T07:31:16;141933.31;;;12.82;100.00
3590;BME280;1809;48.470;9.226;2023-05-11T07:33:42;142641.06;;;12.87;100.00
3590;BME280;1809;48.470;9.226;2023-05-11T07:36:07;142333.03;;;13.04;100.00
3590;BME280;1809;48.470;9.226;2023-05-11T07:38:32;140239.03;;;13.02;100.00
3590;BME280;1809;48.470;9.226;2023-05-11T07:40:58;139900.38;;;13.06;100.00
3590;BME280;1809;48.470;9.226;2023-05-11T07:43:24;137131.88;;;13.12;100.00
3590;BME280;1809;48.470;9.226;2023-05-11T07:45:49;137152.25;;;13.21;100.00
3590;BME280;1809;48.470;9.226;2023-05-11T07:48:14;136147.47;;;13.38;100.00
3590;BME280;1809;48.470;9.226;2023-05-11T07:50:40;131287.09;;;13.40;100.00
3590;BME280;1809;48.470;9.226;2023-05-11T07:53:06;129198.88;;;13.37;100.00
3590;BME280;1809;48.470;9.226;2023-05-11T07:55:32;128186.47;;;13.51;100.00
3590;BME280;1809;48.470;9.226;2023-05-11T07:57:57;128249.81;;;13.81;100.00
3590;BME280;1809;48.470;9.226;2023-05-11T08:00:22;119562.19;;;13.72;100.00
3590;BME280;1809;48.470;9.226;2023-05-11T08:02:48;119918.31;;;13.77;100.00
3590;BME280;1809;48.470;9.226;2023-05-11T08:05:13;123359.06;;;13.65;100.00
3590;BME280;1809;48.470;9.226;2023-05-11T08:07:39;120576.38;;;13.59;100.00
3590;BME280;1809;48.470;9.226;2023-05-11T08:10:04;118197.72;;;13.82;100.00
3590;BME280;1809;48.470;9.226;2023-05-11T08:12:30;114025.19;;;13.71;100.00
3590;BME280;1809;48.470;9.226;2023-05-11T08:14:55;118530.34;;;13.75;100.00
3590;BME280;1809;48.470;9.226;2023-05-11T08:17:20;117493.81;;;13.76;100.00
3590;BME280;1809;48.470;9.226;2023-05-11T08:19:46;117129.47;;;13.67;100.00
3590;BME280;1809;48.470;9.226;2023-05-11T08:22:11;117148.69;;;13.77;100.00
3590;BME280;1809;48.470;9.226;2023-05-11T08:24:37;108130.53;;;13.59;100.00
3590;BME280;1809;48.470;9.226;2023-05-11T08:27:02;108438.28;;;13.37;100.00
3590;BME280;1809;48.470;9.226;2023-05-11T08:29:29;118158.91;;;13.62;100.00
3590;BME280;1809;48.470;9.226;2023-05-11T08:31:54;120245.88;;;13.67;100.00
3590;BME280;1809;48.470;9.226;2023-05-11T08:34:20;125739.56;;;13.42;100.00
3590;BME280;1809;48.470;9.226;2023-05-11T08:36:46;131686.44;;;13.64;100.00
3590;BME280;1809;48.470;9.226;2023-05-11T08:39:11;131365.00;;;13.76;100.00
3590;BME280;1809;48.470;9.226;2023-05-11T08:41:37;129944.41;;;13.62;100.00
3590;BME280;1809;48.470;9.226;2023-05-11T08:44:02;131408.31;;;13.96;100.00
3590;BME280;1809;48.470;9.226;2023-05-11T08:46:29;129380.97;;;14.24;100.00
3590;BME280;1809;48.470;9.226;2023-05-11T08:48:55;124155.50;;;14.16;100.00
3590;BME280;1809;48.470;9.226;2023-05-11T08:51:22;121018.19;;;14.08;100.00
3590;BME280;1809;48.470;9.226;2023-05-11T08:53:48;120954.53;;;13.75;100.00
3590;BME280;1809;48.470;9.226;2023-05-11T08:56:14;125172.91;;;14.04;100.00
3590;BME280;1809;48.470;9.226;2023-05-11T08:58:41;126192.25;;;13.93;100.00
3590;BME280;1809;48.470;9.226;2023-05-11T09:01:08;119630.03;;;14.07;100.00
3590;BME280;1809;48.470;9.226;2023-05-11T09:03:35;119297.28;;;14.14;100.00
3590;BME280;1809;48.470;9.226;2023-05-11T09:06:03;120659.69;;;14.01;100.00
3590;BME280;1809;48.470;9.226;2023-05-11T09:08:33;125161.53;;;13.98;100.00
3590;BME280;1809;48.470;9.226;2023-05-11T09:10:59;123409.84;;;13.90;100.00
3590;BME280;1809;48.470;9.226;2023-05-11T09:13:25;129302.16;;;13.86;100.00
3590;BME280;1809;48.470;9.226;2023-05-11T09:15:51;128313.19;;;14.12;100.00
3590;BME280;1809;48.470;9.226;2023-05-11T09:18:16;122755.78;;;14.10;100.00
3590;BME280;1809;48.470;9.226;2023-05-11T09:20:42;121360.84;;;14.06;100.00
3590;BME280;1809;48.470;9.226;2023-05-11T09:23:08;120314.13;;;14.02;100.00
3590;BME280;1809;48.470;9.226;2023-05-11T09:25:36;116508.34;;;14.04;100.00
3590;BME280;1809;48.470;9.226;2023-05-11T09:28:04;109242.09;;;14.01;100.00
3590;BME280;1809;48.470;9.226;2023-05-11T09:30:29;114432.03;;;14.04;100.00
3590;BME280;1809;48.470;9.226;2023-05-11T09:35:26;124112.63;;;13.94;100.00
3590;BME280;1809;48.470;9.226;2023-05-11T09:37:56;127679.53;;;14.41;100.00
3590;BME280;1809;48.470;9.226;2023-05-11T09:40:22;125975.75;;;14.57;100.00
3590;BME280;1809;48.470;9.226;2023-05-11T09:42:47;113868.16;;;14.73;100.00
3590;BME280;1809;48.470;9.226;2023-05-11T09:45:13;110431.53;;;14.87;100.00
3590;BME280;1809;48.470;9.226;2023-05-11T09:47:38;82176.47;;;14.89;100.00
3590;BME280;1809;48.470;9.226;2023-05-11T09:50:15;76299.34;;;14.51;100.00
3590;BME280;1809;48.470;9.226;2023-05-11T09:52:51;56163.75;;;14.60;100.00
3590;BME280;1809;48.470;9.226;2023-05-11T09:55:16;55163.00;;;14.83;100.00
3590;BME280;1809;48.470;9.226;2023-05-11T09:57:41;40874.88;;;14.56;100.00
3590;BME280;1809;48.470;9.226;2023-05-11T10:00:13;45966.72;;;14.62;100.00
3590;BME280;1809;48.470;9.226;2023-05-11T10:02:39;37488.47;;;14.58;100.00
3590;BME280;1809;48.470;9.226;2023-05-11T10:05:11;23306.97;;;14.80;100.00
3590;BME280;1809;48.470;9.226;2023-05-11T10:07:37;60226.38;;;14.34;100.00
3590;BME280;1809;48.470;9.226;2023-05-11T10:10:05;77311.69;;;14.39;100.00
3590;BME280;1809;48.470;9.226;2023-05-11T10:12:32;93090.47;;;14.32;100.00
3590;BME280;1809;48.470;9.226;2023-05-11T10:15:05;102718.84;;;14.22;100.00
3590;BME280;1809;48.470;9.226;2023-05-11T10:17:31;93429.88;;;14.29;100.00
3590;BME280;1809;48.470;9.226;2023-05-11T10:19:58;88908.31;;;13.92;100.00
3590;BME280;1809;48.470;9.226;2023-05-11T10:22:24;96478.41;;;13.97;100.00
3590;BME280;1809;48.470;9.226;2023-05-11T10:24:50;105425.47;;;13.90;100.00
3590;BME280;1809;48.470;9.226;2023-05-11T10:27:17;113350.53;;;13.80;100.00
3590;BME280;1809;48.470;9.226;2023-05-11T10:29:43;114694.09;;;13.59;100.00
3590;BME280;1809;48.470;9.226;2023-05-11T10:32:09;126078.03;;;13.38;100.00
3590;BME280;1809;48.470;9.226;2023-05-11T10:34:35;129862.00;;;13.23;100.00
3590;BME280;1809;48.470;9.226;2023-05-11T10:37:01;137169.25;;;13.28;100.00
3590;BME280;1809;48.470;9.226;2023-05-11T10:39:28;145195.97;;;13.36;100.00
3590;BME280;1809;48.470;9.226;2023-05-11T10:42:00;146958.81;;;13.44;100.00
3590;BME280;1809;48.470;9.226;2023-05-11T10:53:45;136501.94;;;13.41;100.00
3590;BME280;1809;48.470;9.226;2023-05-11T10:59:20;137925.13;;;13.55;100.00
3590;BME280;1809;48.470;9.226;2023-05-11T11:01:52;138036.69;;;14.05;100.00
3590;BME280;1809;48.470;9.226;2023-05-11T11:04:22;132153.59;;;14.20;100.00
3590;BME280;1809;48.470;9.226;2023-05-11T11:07:03;125965.41;;;14.52;100.00
3590;BME280;1809;48.470;9.226;2023-05-11T11:12:13;83540.78;;;14.83;100.00
3590;BME280;1809;48.470;9.226;2023-05-11T11:15:00;79779.91;;;14.93;100.00
3590;BME280;1809;48.470;9.226;2023-05-11T11:17:28;45991.88;;;14.96;100.00
3590;BME280;1809;48.470;9.226;2023-05-11T11:19:56;11861.97;;;14.91;100.00
3590;BME280;1809;48.470;9.226;2023-05-11T11:25:04;26034.59;;;15.50;100.00
3590;BME280;1809;48.470;9.226;2023-05-11T11:30:21;35484.03;;;15.04;100.00
3590;BME280;1809;48.470;9.226;2023-05-11T11:32:51;15905.97;;;15.23;100.00
3590;BME280;1809;48.470;9.226;2023-05-11T11:38:12;35463.91;;;14.69;100.00
3590;BME280;1809;48.470;9.226;2023-05-11T11:43:21;56176.44;;;14.74;100.00
3590;BME280;1809;48.470;9.226;2023-05-11T11:46:05;6153.59;;;15.06;100.00
3590;BME280;1809;48.470;9.226;2023-05-11T11:48:33;-16591.38;;;15.17;100.00
3590;BME280;1809;48.470;9.226;2023-05-11T11:51:06;-16594.16;;;15.27;100.00
3590;BME280;1809;48.470;9.226;2023-05-11T11:56:04;-16601.88;;;15.54;100.00
3590;BME280;1809;48.470;9.226;2023-05-11T12:01:12;-16588.84;;;15.07;100.00
3590;BME280;1809;48.470;9.226;2023-05-11T12:03:38;-11659.47;;;15.25;100.00
3590;BME280;1809;48.470;9.226;2023-05-11T12:06:05;-16588.56;;;15.06;100.00
3590;BME280;1809;48.470;9.226;2023-05-11T12:08:30;-16493.06;;;14.88;100.00
3590;BME280;1809;48.470;9.226;2023-05-11T12:10:57;21624.00;;;14.89;100.00
3590;BME280;1809;48.470;9.226;2023-05-11T12:13:26;31442.09;;;15.43;100.00
3590;BME280;1809;48.470;9.226;2023-05-11T12:16:14;4140.47;;;15.10;100.00
3590;BME280;1809;48.470;9.226;2023-05-11T12:18:41;-16604.00;;;15.62;100.00
3590;BME280;1809;48.470;9.226;2023-05-11T12:21:18;-16609.16;;;15.81;100.00
3590;BME280;1809;48.470;9.226;2023-05-11T12:23:52;-16608.75;;;15.79;100.00
3590;BME280;1809;48.470;9.226;2023-05-11T12:26:19;-16615.47;;;16.03;100.00
3590;BME280;1809;48.470;9.226;2023-05-11T12:28:49;-16613.22;;;15.95;100.00
3590;BME280;1809;48.470;9.226;2023-05-11T12:31:16;-16607.75;;;15.76;100.00
3590;BME280;1809;48.470;9.226;2023-05-11T12:33:48;-16608.75;;;15.79;100.00
3590;BME280;1809;48.470;9.226;2023-05-11T12:36:15;-16617.44;;;16.10;100.00
3590;BME280;1809;48.470;9.226;2023-05-11T12:38:45;-16612.41;;;15.92;100.00
3590;BME280;1809;48.470;9.226;2023-05-11T12:41:17;-16616.31;;;16.06;100.00
3590;BME280;1809;48.470;9.226;2023-05-11T12:43:43;-16617.28;;;16.10;100.00
3590;BME280;1809;48.470;9.226;2023-05-11T12:46:09;-16615.75;;;16.04;100.00
3590;BME280;1809;48.470;9.226;2023-05-11T12:48:34;-16612.94;;;15.94;100.00
3590;BME280;1809;48.470;9.226;2023-05-11T12:51:00;-16612.09;;;15.91;100.00
3590;BME280;1809;48.470;9.226;2023-05-11T12:53:25;-16612.53;;;15.93;100.00
3590;BME280;1809;48.470;9.226;2023-05-11T12:55:57;-16600.63;;;15.50;100.00
3590;BME280;1809;48.470;9.226;2023-05-11T12:58:23;-16606.22;;;15.70;100.00
3590;BME280;1809;48.470;9.226;2023-05-11T13:00:56;-16613.22;;;15.95;100.00
3590;BME280;1809;48.470;9.226;2023-05-11T13:03:27;-16615.47;;;16.03;100.00
3590;BME280;1809;48.470;9.226;2023-05-11T13:08:31;-16635.22;;;16.75;100.00
3590;BME280;1809;48.470;9.226;2023-05-11T13:11:15;-16627.09;;;16.45;100.00
3590;BME280;1809;48.470;9.226;2023-05-11T13:13:41;-16628.38;;;16.50;100.00
3590;BME280;1809;48.470;9.226;2023-05-11T13:16:06;-16642.66;;;17.01;100.00
3590;BME280;1809;48.470;9.226;2023-05-11T13:18:32;-16644.03;;;17.06;100.00
3590;BME280;1809;48.470;9.226;2023-05-11T13:21:05;-16646.56;;;17.15;100.00
3590;BME280;1809;48.470;9.226;2023-05-11T13:23:30;-16644.88;;;17.09;100.00
3590;BME280;1809;48.470;9.226;2023-05-11T13:25:56;-16631.44;;;16.61;100.00
3590;BME280;1809;48.470;9.226;2023-05-11T13:28:22;-16630.06;;;16.56;100.00
3590;BME280;1809;48.470;9.226;2023-05-11T13:30:49;-16634.81;;;16.73;100.00
3590;BME280;1809;48.470;9.226;2023-05-11T13:33:18;-16641.94;;;16.99;100.00
3590;BME280;1809;48.470;9.226;2023-05-11T13:35:44;-16627.66;;;16.47;100.00
3590;BME280;1809;48.470;9.226;2023-05-11T13:38:10;-16627.81;;;16.48;100.00
3590;BME280;1809;48.470;9.226;2023-05-11T13:40:36;-16629.19;;;16.53;100.00